Aviation Digital Data Service (ADDS)

Output produced by METARs form (1645 UTC 20 January 2019)
found at http://www.aviationweather.gov/metar/data/
 
KABQ 201120Z 2012/2112 VRB03KT P6SM BKN250 
     FM210300 14004KT P6SM BKN250
       
KABY 201120Z 2012/2112 31016G25KT P6SM OVC025 
     FM201600 30015G22KT P6SM OVC060 
     FM202000 30015KT P6SM SKC 
     FM210600 VRB03KT P6SM SKC
       
KACT 201515Z 2015/2112 33005KT P6SM FEW300 
     FM202000 16007KT P6SM SCT300
       
KACV 201411Z 2014/2112 15008KT P6SM OVC045 
     FM201800 21012KT 6SM SHRA SCT025 BKN050 
     FM210400 35005KT P6SM SCT010 SCT050
       
TAF AMD KADW 201420Z 2014/2115 30015G25KT 9999 OVC030 QNH2929INS 
     TEMPO 2014/2016 30025G35KT 520003 
     BECMG 2016/2017 32025G35KT 9999 SCT025 520003 QNH2946INS 
     BECMG 2023/2024 32030G40KT 9999 SCT030 520003 QNH2971INS TX05/2014Z
TNM09/2109Z
       
KAEG 201120Z 2012/2112 30007KT P6SM BKN250 
     FM202100 VRB04KT P6SM BKN250 
     FM210300 23004KT P6SM BKN250
       
KAEX 201513Z 2015/2112 34009KT P6SM SCT025 
     FM201700 35010KT P6SM SKC 
     FM210000 VRB04KT P6SM SKC
       
KAFW 201515Z 2015/2112 31005KT P6SM SCT300 
     FM201800 17006KT P6SM SCT300
       
KAGC 201408Z 2014/2112 32014G28KT 4SM -SN BLSN OVC015 
     TEMPO 2014/2017 2SM -SN BLSN 
     FM202000 32015G29KT P6SM BKN035 
     FM210700 32015G22KT P6SM BKN025
       
KAGS 201510Z 2015/2112 29017G27KT P6SM SCT035 
     FM202300 30012KT P6SM SKC 
     FM210500 30005KT P6SM SKC
       
KAHN 201129Z 2012/2112 27013G23KT P6SM SCT015 BKN025 
     FM201400 30017G25KT P6SM SCT025 BKN040 
     FM201800 30015G24KT P6SM SKC 
     FM210200 30012KT P6SM SKC
       
KAIA 201122Z 2012/2112 31010KT P6SM SCT150 
     FM201700 VRB05KT P6SM SCT050 BKN100 
     FM210200 16015G22KT P6SM BKN150
       
KALB 201303Z 2013/2112 VRB06KT 6SM -SNPL BR OVC012 
     TEMPO 2013/2017 1/2SM -SNPL FZFG BKN012 
     FM201700 34010G16KT 5SM -SHSN BLSN OVC015 
     FM202200 31016G24KT 6SM BLSN BKN030
       
KALS 201120Z 2012/2112 VRB03KT P6SM BKN200 
     FM202100 20006KT P6SM BKN200
       
KALW 201440Z 2015/2112 18008KT P6SM -RA SCT001 BKN035 OVC050 
     TEMPO 2015/2018 1SM -RA BR BKN003 
     FM201800 22006KT 4SM -RA BR SCT005 BKN012 OVC025 
     FM202300 VRB04KT 5SM BR VCSH SCT010 BKN020 OVC030 
     FM210200 17004KT 3SM BR SCT005 OVC012
       
KAMA 201120Z 2012/2112 20012KT P6SM SCT250 
     FM202300 18010KT P6SM BKN250 
     FM210700 21011KT P6SM OVC250
       
KANB 201527Z 2015/2112 30014G22KT P6SM OVC025 
     FM202000 30014G22KT P6SM SCT030 
     FM202200 31011KT P6SM SKC 
     FM210600 36006KT P6SM SKC
       
KAND 201120Z 2012/2112 26015G25KT P6SM SCT035 
     FM201500 30016G27KT P6SM FEW250 
     FM210100 29012KT P6SM FEW200 
     FM210500 28007KT P6SM SKC 
     FM210900 31004KT P6SM SKC
       
KAOO 201540Z 2016/2112 30018G25KT P6SM OVC015 
     FM201900 31022G32KT P6SM SCT025 OVC040
       
KAPA 201532Z 2016/2112 16007KT P6SM FEW080 SCT140 BKN220 
     FM210100 20009KT P6SM SCT120 BKN200
       
KAPF 201511Z 2015/2112 29021KT P6SM SCT040 BKN150 
     FM210000 33013KT P6SM FEW250 
     FM210600 35010KT P6SM SKC
       
KAPN 201630Z 2017/2112 01012G21KT 5SM -SHSN BKN021 
     TEMPO 2017/2018 2SM -SHSN SCT012 OVC020 
     FM202000 36012G21KT P6SM VCSH BKN025 
     FM210300 36008KT P6SM BKN020
       
KARA 201516Z 2015/2112 35013KT P6SM OVC023 
     TEMPO 2015/2017 SCT025 
     FM201700 35013G20KT P6SM SKC 
     FM210000 VRB04KT P6SM SKC
       
KASD 201124Z 2012/2112 32008KT P6SM OVC024 
     FM201500 34012KT P6SM BKN030 
     FM201600 34011KT P6SM SCT100 
     FM210200 VRB03KT P6SM SKC
       
KASE 201122Z 2012/2112 16006KT P6SM FEW250 
     FM201600 VRB03KT P6SM SCT250 
     FM210000 22004KT P6SM BKN250 
     FM210400 19006KT P6SM SCT110 BKN200 WS020/25030KT
       
KASN 201526Z 2015/2112 32015G25KT P6SM OVC025 
     FM202000 30014G22KT P6SM SCT030 
     FM202200 31011KT P6SM SKC 
     FM210600 36006KT P6SM SKC
       
KAST 201131Z 2012/2112 12003KT 6SM BR OVC080 
     FM201400 06005KT P6SM -RA OVC045 
     FM202300 05005KT P6SM SCT030 OVC050 
     FM210400 01005KT P6SM BKN070 OVC100
       
KATW 201130Z 2012/2112 35007KT P6SM SKC 
     FM201700 36010G15KT P6SM FEW028 
     FM202200 36009KT P6SM SCT025 
     FM202300 35004KT P6SM SKC
       
KATL 201554Z 2016/2118 30020G30KT P6SM OVC022 
     FM201800 30022G32KT P6SM BKN025 
     FM202000 32022G32KT P6SM SCT035 
     FM210000 32020G30KT P6SM SKC 
     FM210200 32014G22KT P6SM SKC 
     FM210900 33012KT P6SM SKC
       
KATY 201617Z 2016/2112 10007KT 3SM -SN OVC035 
     TEMPO 2016/2018 1SM -SN OVC025 
     FM201800 12011KT P6SM OVC040 
     FM210400 14012G18KT P6SM BKN070 
     FM210800 15015G22KT P6SM OVC025 
     FM211000 15015G25KT 3SM -SN BLSN OVC025
       
KAUG 201121Z 2012/2112 03015G25KT 1/2SM SN OVC005 
     TEMPO 2012/2016 1/4SM +SN VV003 
     FM201900 01011KT 2SM -SNPL OVC005 
     FM210300 33012G22KT 5SM -SHSN BKN012 OVC020 
     FM210600 32012G20KT P6SM OVC050
       
KAUS 201124Z 2012/2118 34007KT P6SM SKC 
     FM202000 18006KT P6SM FEW250
       
KAUW 201130Z 2012/2112 35005KT P6SM SKC 
     FM201500 36007KT P6SM FEW022 
     FM202200 02002KT P6SM SKC
       
KAVL 201411Z 2014/2112 34025G37KT P6SM FEW012 SCT025 
     TEMPO 2014/2016 5SM -SN SCT012 BKN025 
     FM202000 33020G30KT P6SM FEW050 
     FM210300 33015G25KT P6SM FEW200 
     FM210800 33013G21KT P6SM FEW250
       
KAVP 201609Z 2016/2112 34012G22KT 2SM -SN BR OVC016 
     FM201800 33015G26KT 4SM BLSN OVC018 
     FM202000 33017G31KT P6SM BKN040 
     FM210900 30013G24KT P6SM BKN050
       
KAXN 201133Z 2012/2112 09007KT P6SM OVC080 
     FM201700 11008KT P6SM BKN090 
     FM210200 13009KT P6SM SCT120 
     FM210600 14012G19KT P6SM BKN150
       
KAZO 201144Z 2012/2112 35009KT P6SM SCT040 
     FM210100 02007KT P6SM SKC